createdAt,value
2023-05-24T00:01:11.048Z,4.60
2023-05-24T00:03:40.235Z,5.15
2023-05-24T00:06:09.144Z,4.82
2023-05-24T00:08:36.385Z,5.72
2023-05-24T00:11:03.645Z,5.22
2023-05-24T00:13:30.875Z,7.18
2023-05-24T00:15:58.152Z,5.07
2023-05-24T00:18:26.179Z,7.15
2023-05-24T00:20:57.045Z,6.03
2023-05-24T00:23:25.639Z,8.52
2023-05-24T00:25:52.976Z,4.57
2023-05-24T00:28:21.095Z,6.53
2023-05-24T00:30:48.317Z,4.80
2023-05-24T00:33:15.658Z,6.35
2023-05-24T00:35:42.903Z,5.50
2023-05-24T00:38:10.190Z,4.63
2023-05-24T00:40:38.786Z,6.22
2023-05-24T00:43:06.038Z,4.82
2023-05-24T00:45:33.842Z,4.63
2023-05-24T00:48:01.302Z,5.65
2023-05-24T00:50:28.636Z,4.88
2023-05-24T00:52:55.932Z,4.20
2023-05-24T00:55:23.178Z,5.55
2023-05-24T00:57:52.295Z,4.03
2023-05-24T01:00:19.798Z,5.80
2023-05-24T01:02:48.275Z,6.13
2023-05-24T01:05:17.302Z,7.50
2023-05-24T01:07:47.033Z,5.07
2023-05-24T01:10:15.602Z,7.43
2023-05-24T01:12:47.115Z,6.25
2023-05-24T01:15:18.271Z,3.85
2023-05-24T01:17:48.365Z,5.72
2023-05-24T01:23:01.743Z,4.50
2023-05-24T01:25:33.414Z,4.25
2023-05-24T01:28:04.082Z,6.18
2023-05-24T01:30:31.339Z,4.40
2023-05-24T01:32:58.589Z,5.80
2023-05-24T01:35:25.827Z,5.78
2023-05-24T01:37:53.062Z,5.93
2023-05-24T01:40:20.353Z,3.45
2023-05-24T01:42:49.073Z,5.72
2023-05-24T01:45:19.313Z,4.35
2023-05-24T01:47:48.426Z,5.93
2023-05-24T01:50:17.289Z,5.20
2023-05-24T01:52:44.937Z,4.85
2023-05-24T01:55:12.368Z,4.85
2023-05-24T01:57:41.243Z,4.50
2023-05-24T02:00:09.705Z,4.22
2023-05-24T02:02:38.305Z,4.20
2023-05-24T02:05:05.963Z,5.80
2023-05-24T02:07:33.219Z,5.65
2023-05-24T02:10:00.487Z,3.83
2023-05-24T02:12:27.719Z,6.75
2023-05-24T02:14:54.980Z,6.05
2023-05-24T02:17:22.496Z,7.60
2023-05-24T02:19:51.127Z,5.10
2023-05-24T02:22:18.446Z,4.70
2023-05-24T02:24:45.813Z,7.90
2023-05-24T02:27:13.148Z,4.22
2023-05-24T02:29:41.815Z,5.07
2023-05-24T02:32:09.111Z,5.32
2023-05-24T02:34:36.345Z,4.75
2023-05-24T02:37:06.020Z,4.95
2023-05-24T02:39:33.355Z,4.70
2023-05-24T02:42:00.634Z,5.15
2023-05-24T02:44:27.946Z,5.32
2023-05-24T02:46:55.227Z,6.28
2023-05-24T02:49:22.512Z,3.28
2023-05-24T02:51:49.802Z,5.00
2023-05-24T02:54:18.726Z,4.75
2023-05-24T02:56:45.974Z,4.30
2023-05-24T02:59:13.235Z,4.60
2023-05-24T03:01:40.557Z,3.78
2023-05-24T03:04:07.936Z,3.80
2023-05-24T03:06:36.042Z,2.85
2023-05-24T03:09:03.493Z,3.88
2023-05-24T03:11:32.049Z,5.97
2023-05-24T03:13:59.317Z,4.63
2023-05-24T03:16:26.569Z,4.72
2023-05-24T03:18:55.334Z,3.88
2023-05-24T03:21:23.448Z,4.38
2023-05-24T03:23:50.857Z,4.55
2023-05-24T03:26:18.649Z,5.70
2023-05-24T03:28:47.525Z,4.85
2023-05-24T03:31:14.911Z,3.95
2023-05-24T03:33:42.194Z,5.10
2023-05-24T03:36:09.559Z,6.55
2023-05-24T03:38:36.810Z,5.55
2023-05-24T03:41:04.110Z,6.80
2023-05-24T03:43:31.341Z,5.18
2023-05-24T03:45:59.986Z,3.65
2023-05-24T03:48:27.252Z,4.50
2023-05-24T03:50:54.526Z,4.63
2023-05-24T03:53:23.151Z,4.75
2023-05-24T03:55:50.937Z,6.00
2023-05-24T03:58:18.195Z,5.18
2023-05-24T04:00:45.439Z,5.18
2023-05-24T04:03:14.695Z,3.85
2023-05-24T04:05:42.080Z,4.53
2023-05-24T04:08:09.318Z,7.25
2023-05-24T04:10:36.561Z,5.80
2023-05-24T04:13:03.911Z,6.35
2023-05-24T04:15:31.701Z,5.57
2023-05-24T04:18:00.495Z,6.10
2023-05-24T04:20:29.294Z,7.88
2023-05-24T04:22:56.972Z,6.68
2023-05-24T04:25:24.541Z,5.63
2023-05-24T04:27:51.817Z,6.10
2023-05-24T04:30:19.448Z,4.22
2023-05-24T04:32:47.326Z,7.55
2023-05-24T04:35:15.530Z,5.07
2023-05-24T04:37:44.516Z,4.68
2023-05-24T04:40:12.465Z,6.20
2023-05-24T04:42:39.706Z,6.28
2023-05-24T04:45:07.572Z,6.90
2023-05-24T04:47:34.856Z,5.32
2023-05-24T04:50:02.351Z,4.45
2023-05-24T04:52:30.462Z,5.40
2023-05-24T04:54:59.095Z,6.80
2023-05-24T04:57:26.371Z,7.10
2023-05-24T04:59:53.662Z,5.60
2023-05-24T05:02:22.251Z,5.15
2023-05-24T05:04:49.573Z,6.70
2023-05-24T05:07:17.019Z,6.75
2023-05-24T05:09:44.287Z,5.25
2023-05-24T05:12:14.153Z,6.57
2023-05-24T05:14:41.958Z,7.00
2023-05-24T05:17:09.172Z,5.30
2023-05-24T05:19:36.519Z,6.18
2023-05-24T05:22:03.765Z,6.95
2023-05-24T05:24:31.656Z,6.82
2023-05-24T05:26:58.961Z,6.05
2023-05-24T05:29:27.501Z,7.53
2023-05-24T05:31:55.730Z,5.82
2023-05-24T05:34:22.977Z,18.20
2023-05-24T05:36:50.217Z,13.93
2023-05-24T05:39:17.752Z,11.93
2023-05-24T05:41:46.274Z,15.63
2023-05-24T05:44:13.905Z,16.20
2023-05-24T05:46:45.940Z,12.85
2023-05-24T05:49:13.708Z,14.10
2023-05-24T05:51:40.980Z,9.80
2023-05-24T05:54:14.146Z,8.18
2023-05-24T05:56:45.428Z,10.75
2023-05-24T05:59:12.711Z,12.48
2023-05-24T06:01:40.058Z,11.90
2023-05-24T06:04:08.730Z,13.35
2023-05-24T06:06:36.121Z,11.27
2023-05-24T06:09:03.447Z,16.05
2023-05-24T06:11:30.746Z,11.07
2023-05-24T06:13:57.996Z,8.65
2023-05-24T06:16:25.373Z,8.73
2023-05-24T06:19:04.507Z,9.30
2023-05-24T06:21:36.529Z,9.15
2023-05-24T06:24:04.086Z,13.27
2023-05-24T06:26:31.462Z,9.27
2023-05-24T06:28:58.704Z,8.45
2023-05-24T06:31:26.010Z,9.85
2023-05-24T06:34:03.804Z,10.25
2023-05-24T06:36:33.925Z,10.75
2023-05-24T06:39:02.465Z,11.90
2023-05-24T06:41:29.821Z,10.73
2023-05-24T06:43:57.095Z,11.60
2023-05-24T06:46:24.355Z,12.50
2023-05-24T06:48:51.690Z,11.02
2023-05-24T06:51:19.037Z,14.27
2023-05-24T06:53:46.289Z,12.00
2023-05-24T06:56:15.074Z,9.32
2023-05-24T06:58:42.850Z,11.45
2023-05-24T07:01:10.226Z,11.02
2023-05-24T07:03:38.125Z,8.73
2023-05-24T07:06:05.414Z,8.60
2023-05-24T07:08:32.740Z,8.27
2023-05-24T07:11:00.236Z,12.38
2023-05-24T07:13:28.845Z,7.63
2023-05-24T07:15:56.188Z,10.85
2023-05-24T07:18:23.500Z,11.20
2023-05-24T07:20:50.877Z,9.13
2023-05-24T07:23:18.216Z,17.92
2023-05-24T07:25:45.468Z,19.83
2023-05-24T07:28:14.156Z,14.65
2023-05-24T07:30:42.755Z,22.40
2023-05-24T07:33:10.036Z,19.33
2023-05-24T07:35:38.493Z,18.48
2023-05-24T07:38:05.782Z,16.60
2023-05-24T07:40:33.041Z,15.57
2023-05-24T07:43:00.347Z,17.85
2023-05-24T07:45:27.651Z,17.63
2023-05-24T07:47:57.060Z,18.15
2023-05-24T07:50:24.629Z,21.73
2023-05-24T07:52:52.168Z,20.73
2023-05-24T07:55:19.426Z,13.00
2023-05-24T07:57:46.689Z,13.20
2023-05-24T08:00:15.259Z,12.10
2023-05-24T08:02:43.147Z,14.57
2023-05-24T08:05:11.920Z,15.73
2023-05-24T08:07:40.189Z,16.20
2023-05-24T08:10:08.198Z,10.20
2023-05-24T08:12:35.465Z,14.15
2023-05-24T08:15:02.711Z,16.15
2023-05-24T08:17:31.560Z,16.77
2023-05-24T08:19:58.961Z,27.13
2023-05-24T08:22:28.174Z,28.48
2023-05-24T08:24:55.396Z,20.88
2023-05-24T08:27:22.622Z,23.60
2023-05-24T08:29:49.847Z,26.00
2023-05-24T08:32:17.092Z,19.73
2023-05-24T08:34:45.137Z,22.05
2023-05-24T08:37:16.253Z,20.25
2023-05-24T08:39:45.061Z,32.97
2023-05-24T08:42:12.321Z,39.70
2023-05-24T08:44:40.501Z,49.03
2023-05-24T08:47:08.147Z,54.47
2023-05-24T08:49:37.110Z,46.80
2023-05-24T08:52:04.715Z,56.17
2023-05-24T08:54:32.156Z,74.65
2023-05-24T08:57:00.979Z,53.92
2023-05-24T08:59:28.281Z,40.10
2023-05-24T09:01:55.663Z,63.17
2023-05-24T09:04:23.137Z,59.40
2023-05-24T09:06:50.429Z,64.03
2023-05-24T09:09:17.886Z,57.60
2023-05-24T09:11:45.122Z,45.88
2023-05-24T09:14:13.731Z,45.47
2023-05-24T09:16:41.601Z,52.88
2023-05-24T09:19:09.056Z,51.05
2023-05-24T09:21:36.721Z,52.10
2023-05-24T09:24:04.041Z,58.33
2023-05-24T09:26:31.776Z,45.95
2023-05-24T09:28:59.190Z,48.95
2023-05-24T09:31:34.578Z,48.90
2023-05-24T09:34:01.887Z,41.35
2023-05-24T09:36:30.186Z,42.47
2023-05-24T09:39:08.477Z,51.88
2023-05-24T09:41:35.750Z,48.47
2023-05-24T09:44:03.244Z,54.13
2023-05-24T09:46:31.067Z,45.58
2023-05-24T09:48:59.843Z,48.05
2023-05-24T09:51:27.322Z,64.75
2023-05-24T09:53:57.565Z,32.38
2023-05-24T09:56:25.195Z,137.88
2023-05-24T09:58:52.522Z,57.63
2023-05-24T10:01:20.798Z,41.65
2023-05-24T10:03:54.034Z,33.30
2023-05-24T10:06:23.880Z,18.50
2023-05-24T10:08:51.725Z,26.58
2023-05-24T10:11:19.305Z,25.42
2023-05-24T10:13:46.558Z,25.77
2023-05-24T10:16:13.859Z,32.83
2023-05-24T10:18:41.118Z,24.52
2023-05-24T10:21:09.533Z,24.30
2023-05-24T10:23:38.799Z,24.55
2023-05-24T10:26:07.354Z,22.58
2023-05-24T10:28:35.276Z,23.40
2023-05-24T10:31:03.379Z,21.67
2023-05-24T10:33:30.762Z,24.92
2023-05-24T10:35:58.138Z,21.65
2023-05-24T10:38:25.680Z,21.88
2023-05-24T10:40:54.334Z,19.02
2023-05-24T10:43:22.116Z,22.40
2023-05-24T10:45:49.628Z,22.98
2023-05-24T10:48:32.582Z,20.25
2023-05-24T10:51:01.710Z,19.83
2023-05-24T10:55:56.356Z,21.52
2023-05-24T10:58:24.340Z,18.27
2023-05-24T11:00:53.330Z,18.85
2023-05-24T11:03:24.518Z,16.88
2023-05-24T11:05:53.203Z,19.05
2023-05-24T11:08:24.380Z,12.98
2023-05-24T11:10:52.313Z,15.15
2023-05-24T11:13:21.729Z,19.95
2023-05-24T11:15:52.298Z,15.35
2023-05-24T11:18:22.781Z,15.48
2023-05-24T11:20:50.194Z,18.77
2023-05-24T11:23:17.814Z,16.48
2023-05-24T11:25:45.299Z,13.98
2023-05-24T11:28:12.998Z,15.63
2023-05-24T11:30:42.063Z,15.48
2023-05-24T11:33:16.231Z,16.27
2023-05-24T11:35:43.538Z,15.70
2023-05-24T11:38:12.888Z,15.73
2023-05-24T11:40:44.485Z,11.85
2023-05-24T11:43:16.753Z,11.50
2023-05-24T11:45:46.119Z,12.57
2023-05-24T11:48:13.511Z,15.53
2023-05-24T11:50:49.403Z,11.38
2023-05-24T11:53:20.752Z,11.95
2023-05-24T11:55:48.665Z,10.38
2023-05-24T11:58:19.315Z,17.90
2023-05-24T12:00:48.126Z,10.13
2023-05-24T12:03:15.521Z,10.77
2023-05-24T12:05:42.984Z,10.57
2023-05-24T12:08:12.711Z,11.38
2023-05-24T12:10:41.189Z,10.75
2023-05-24T12:13:20.009Z,9.98
2023-05-24T12:15:51.405Z,11.50
2023-05-24T12:18:20.119Z,12.15
2023-05-24T12:20:47.553Z,9.70
2023-05-24T12:23:15.076Z,12.00
2023-05-24T12:25:42.354Z,10.80
2023-05-24T12:28:09.622Z,8.27
2023-05-24T12:30:37.857Z,8.18
2023-05-24T12:33:06.902Z,10.75
2023-05-24T12:35:34.202Z,7.40
2023-05-24T12:38:01.785Z,8.80
2023-05-24T12:40:29.027Z,8.52
2023-05-24T12:42:57.257Z,7.53
2023-05-24T12:45:25.814Z,10.32
2023-05-24T12:47:53.247Z,8.52
2023-05-24T12:50:22.113Z,11.77
2023-05-24T12:52:52.788Z,7.25
2023-05-24T12:55:20.129Z,9.52
2023-05-24T12:57:52.985Z,8.18
2023-05-24T13:00:21.005Z,7.68
2023-05-24T13:02:48.292Z,7.80
2023-05-24T13:05:16.043Z,7.93
2023-05-24T13:07:44.707Z,10.43
2023-05-24T13:10:12.356Z,6.93
2023-05-24T13:12:41.602Z,9.32
2023-05-24T13:15:09.307Z,7.20
2023-05-24T13:17:36.650Z,6.90
2023-05-24T13:20:06.721Z,7.63
2023-05-24T13:25:03.198Z,8.35
2023-05-24T13:27:30.483Z,6.73
2023-05-24T13:30:01.261Z,9.68
2023-05-24T13:32:29.076Z,7.75
2023-05-24T13:34:56.353Z,6.78
2023-05-24T13:37:24.582Z,7.85
2023-05-24T13:39:52.047Z,9.10
2023-05-24T13:42:20.837Z,7.68
2023-05-24T13:44:48.141Z,6.97
2023-05-24T13:47:31.071Z,6.70
2023-05-24T13:50:06.850Z,7.00
2023-05-24T13:52:34.122Z,6.18
2023-05-24T13:55:04.140Z,5.75
2023-05-24T13:57:49.791Z,5.45
2023-05-24T14:00:19.248Z,6.57
2023-05-24T14:02:46.766Z,7.65
2023-05-24T14:05:26.874Z,6.38
2023-05-24T14:07:55.626Z,6.93
2023-05-24T14:10:23.484Z,9.10
2023-05-24T14:13:07.896Z,7.07
2023-05-24T14:15:39.927Z,7.10
2023-05-24T14:18:08.452Z,8.23
2023-05-24T14:20:37.744Z,5.82
2023-05-24T14:23:05.923Z,7.80
2023-05-24T14:25:34.052Z,8.48
2023-05-24T14:28:03.547Z,8.20
2023-05-24T14:30:31.779Z,7.53
2023-05-24T14:33:00.588Z,6.88
2023-05-24T14:35:27.934Z,6.68
2023-05-24T14:37:55.222Z,6.70
2023-05-24T14:40:22.508Z,8.27
2023-05-24T14:42:49.956Z,8.00
2023-05-24T14:45:18.562Z,5.95
2023-05-24T14:47:45.821Z,5.65
2023-05-24T14:50:13.164Z,5.43
2023-05-24T14:52:40.454Z,8.00
2023-05-24T14:55:08.185Z,5.68
2023-05-24T14:57:35.911Z,6.35
2023-05-24T15:00:03.847Z,7.30
2023-05-24T15:02:34.178Z,6.05
2023-05-24T15:05:01.643Z,7.05
2023-05-24T15:07:28.889Z,6.35
2023-05-24T15:09:56.191Z,4.47
2023-05-24T15:12:23.506Z,7.15
2023-05-24T15:14:50.830Z,4.97
2023-05-24T15:17:20.945Z,6.22
2023-05-24T15:19:50.337Z,5.78
2023-05-24T15:22:17.753Z,7.55
2023-05-24T15:24:45.024Z,6.10
2023-05-24T15:27:12.278Z,7.57
2023-05-24T15:29:39.550Z,6.40
2023-05-24T15:32:07.240Z,5.68
2023-05-24T15:34:34.496Z,7.30
2023-05-24T15:37:03.049Z,5.32
2023-05-24T15:39:30.336Z,6.20
2023-05-24T15:41:57.854Z,6.38
2023-05-24T15:44:25.113Z,11.02
2023-05-24T15:46:52.380Z,6.47
2023-05-24T15:49:19.677Z,6.00
2023-05-24T15:52:02.735Z,7.05
2023-05-24T15:54:33.744Z,6.30
2023-05-24T15:57:01.715Z,6.30
2023-05-24T15:59:28.989Z,4.60
2023-05-24T16:01:56.457Z,7.32
2023-05-24T16:04:23.816Z,5.20
2023-05-24T16:06:51.092Z,4.95
2023-05-24T16:09:18.383Z,5.00
2023-05-24T16:11:47.709Z,4.68
2023-05-24T16:14:14.959Z,7.13
2023-05-24T16:16:42.820Z,6.88
2023-05-24T16:19:10.486Z,5.32
2023-05-24T16:21:38.080Z,7.03
2023-05-24T16:24:05.792Z,6.38
2023-05-24T16:26:33.319Z,7.07
2023-05-24T16:29:02.590Z,5.90
2023-05-24T16:31:30.733Z,4.43
2023-05-24T16:33:58.735Z,6.28
2023-05-24T16:36:26.753Z,6.57
2023-05-24T16:38:54.109Z,8.20
2023-05-24T16:41:21.386Z,5.47
2023-05-24T16:43:48.650Z,5.53
2023-05-24T16:46:17.244Z,6.07
2023-05-24T16:48:44.567Z,4.47
2023-05-24T16:51:11.860Z,6.43
2023-05-24T16:53:39.098Z,5.20
2023-05-24T16:56:06.613Z,5.65
2023-05-24T16:58:33.864Z,6.43
2023-05-24T17:01:01.292Z,5.32
2023-05-24T17:03:30.053Z,6.22
2023-05-24T17:06:01.112Z,5.88
2023-05-24T17:08:30.449Z,5.75
2023-05-24T17:10:58.865Z,6.45
2023-05-24T17:13:27.274Z,5.28
2023-05-24T17:15:55.208Z,5.68
2023-05-24T17:18:27.982Z,6.70
2023-05-24T17:20:57.082Z,5.72
2023-05-24T17:23:25.205Z,5.53
2023-05-24T17:25:52.817Z,5.22
2023-05-24T17:28:20.167Z,5.82
2023-05-24T17:30:48.435Z,6.45
2023-05-24T17:33:15.954Z,5.18
2023-05-24T17:35:43.370Z,5.03
2023-05-24T17:38:11.960Z,6.05
2023-05-24T17:40:39.323Z,6.47
2023-05-24T17:43:07.500Z,5.03
2023-05-24T17:45:34.793Z,6.43
2023-05-24T17:48:02.042Z,6.18
2023-05-24T17:50:29.324Z,8.07
2023-05-24T17:52:58.037Z,5.20
2023-05-24T17:55:27.366Z,4.97
2023-05-24T17:57:54.811Z,5.75
2023-05-24T18:00:22.049Z,7.40
2023-05-24T18:02:49.431Z,5.70
2023-05-24T18:05:16.950Z,5.97
2023-05-24T18:07:44.366Z,5.40
2023-05-24T18:10:12.195Z,5.38
2023-05-24T18:12:41.182Z,4.95
2023-05-24T18:15:08.797Z,6.68
2023-05-24T18:17:36.384Z,5.72
2023-05-24T18:20:04.017Z,6.75
2023-05-24T18:22:31.636Z,5.45
2023-05-24T18:24:59.417Z,7.30
2023-05-24T18:27:26.981Z,7.28
2023-05-24T18:29:55.574Z,6.57
2023-05-24T18:32:22.958Z,7.85
2023-05-24T18:34:50.257Z,4.60
2023-05-24T18:37:17.533Z,6.25
2023-05-24T18:39:44.763Z,7.07
2023-05-24T18:42:12.553Z,8.23
2023-05-24T18:44:39.932Z,6.78
2023-05-24T18:47:10.432Z,6.97
2023-05-24T18:49:37.698Z,6.45
2023-05-24T18:52:05.080Z,5.85
2023-05-24T18:54:32.313Z,6.25
2023-05-24T18:57:02.216Z,6.93
2023-05-24T18:59:31.507Z,6.22
2023-05-24T19:02:00.781Z,8.07
2023-05-24T19:04:29.615Z,6.60
2023-05-24T19:06:56.891Z,8.48
2023-05-24T19:09:24.792Z,7.40
2023-05-24T19:11:52.156Z,6.47
2023-05-24T19:14:21.885Z,7.80
2023-05-24T19:16:49.205Z,5.95
2023-05-24T19:19:16.682Z,8.82
2023-05-24T19:21:45.278Z,7.45
2023-05-24T19:24:12.562Z,7.57
2023-05-24T19:26:40.187Z,7.20
2023-05-24T19:29:07.494Z,7.68
2023-05-24T19:31:36.042Z,9.02
2023-05-24T19:34:03.381Z,8.52
2023-05-24T19:36:32.660Z,9.25
2023-05-24T19:39:01.262Z,8.07
2023-05-24T19:41:28.634Z,9.05
2023-05-24T19:43:56.424Z,7.28
2023-05-24T19:46:23.864Z,7.53
2023-05-24T19:48:51.348Z,7.13
2023-05-24T19:51:18.601Z,7.68
2023-05-24T19:53:45.893Z,8.23
2023-05-24T19:56:14.482Z,7.90
2023-05-24T19:58:41.761Z,8.20
2023-05-24T20:01:09.070Z,8.07
2023-05-24T20:03:36.436Z,7.60
2023-05-24T20:06:03.791Z,6.95
2023-05-24T20:08:31.073Z,6.90
2023-05-24T20:10:58.305Z,8.25
2023-05-24T20:13:26.916Z,5.38
2023-05-24T20:15:56.037Z,7.13
2023-05-24T20:18:23.716Z,6.35
2023-05-24T20:20:50.959Z,5.18
2023-05-24T20:23:18.218Z,6.05
2023-05-24T20:25:45.959Z,5.95
2023-05-24T20:28:28.909Z,7.50
2023-05-24T20:30:59.085Z,6.65
2023-05-24T20:33:26.396Z,6.85
2023-05-24T20:35:54.269Z,6.35
2023-05-24T20:38:21.942Z,9.85
2023-05-24T20:40:49.169Z,6.55
2023-05-24T20:43:16.416Z,8.48
2023-05-24T20:45:43.928Z,8.10
2023-05-24T20:48:12.914Z,5.97
2023-05-24T20:50:40.170Z,7.45
2023-05-24T20:53:07.420Z,6.93
2023-05-24T20:55:34.660Z,8.50
2023-05-24T20:58:01.906Z,5.65
2023-05-24T21:00:29.147Z,5.80
2023-05-24T21:02:56.590Z,6.40
2023-05-24T21:05:25.299Z,7.60
2023-05-24T21:07:52.557Z,7.05
2023-05-24T21:10:20.969Z,7.78
2023-05-24T21:12:48.929Z,5.80
2023-05-24T21:15:16.213Z,7.78
2023-05-24T21:17:43.480Z,5.63
2023-05-24T21:20:11.197Z,4.78
2023-05-24T21:22:39.857Z,6.03
2023-05-24T21:25:07.715Z,5.95
2023-05-24T21:27:34.968Z,7.60
2023-05-24T21:30:03.288Z,7.72
2023-05-24T21:32:30.547Z,8.25
2023-05-24T21:34:57.806Z,8.82
2023-05-24T21:37:25.759Z,6.93
2023-05-24T21:39:54.290Z,8.50
2023-05-24T21:42:21.506Z,6.05
2023-05-24T21:44:48.738Z,6.97
2023-05-24T21:47:15.967Z,5.45
2023-05-24T21:49:43.222Z,4.85
2023-05-24T21:52:10.505Z,7.78
2023-05-24T21:54:37.735Z,6.95
2023-05-24T21:57:07.024Z,5.20
2023-05-24T21:59:34.298Z,5.80
2023-05-24T22:02:01.646Z,6.95
2023-05-24T22:04:28.915Z,6.55
2023-05-24T22:06:56.184Z,6.35
2023-05-24T22:09:23.410Z,7.97
2023-05-24T22:11:50.680Z,6.45
2023-05-24T22:14:19.235Z,8.00
2023-05-24T22:16:46.781Z,4.60
2023-05-24T22:19:16.585Z,8.00
2023-05-24T22:21:45.956Z,7.28
2023-05-24T22:24:13.585Z,8.38
2023-05-24T22:26:41.518Z,5.25
2023-05-24T22:29:08.823Z,8.65
2023-05-24T22:31:37.383Z,8.52
2023-05-24T22:34:04.654Z,5.20
2023-05-24T22:36:33.144Z,7.70
2023-05-24T22:39:00.544Z,4.50
2023-05-24T22:41:27.849Z,6.88
2023-05-24T22:43:55.082Z,5.93
2023-05-24T22:46:22.914Z,4.72
2023-05-24T22:48:52.155Z,3.90
2023-05-24T22:51:19.423Z,5.57
2023-05-24T22:53:46.760Z,6.35
2023-05-24T22:56:14.075Z,4.25
2023-05-24T22:58:41.320Z,4.18
2023-05-24T23:01:08.598Z,6.07
2023-05-24T23:03:36.075Z,5.25
2023-05-24T23:06:05.453Z,6.18
2023-05-24T23:08:32.884Z,6.00
2023-05-24T23:11:00.203Z,5.85
2023-05-24T23:13:33.639Z,4.93
2023-05-24T23:16:00.894Z,6.53
2023-05-24T23:18:28.325Z,6.63
2023-05-24T23:20:55.890Z,4.85
2023-05-24T23:23:24.600Z,7.68
2023-05-24T23:25:52.031Z,4.97
2023-05-24T23:28:19.312Z,6.97
2023-05-24T23:30:46.645Z,5.22
2023-05-24T23:33:13.926Z,4.68
2023-05-24T23:35:41.245Z,6.80
2023-05-24T23:38:08.716Z,4.95
2023-05-24T23:40:37.284Z,5.07
2023-05-24T23:43:04.554Z,5.65
2023-05-24T23:45:31.797Z,4.00
2023-05-24T23:47:59.148Z,5.00
2023-05-24T23:50:27.401Z,4.55
2023-05-24T23:52:54.698Z,4.40
2023-05-24T23:55:22.449Z,5.60
2023-05-24T23:57:52.039Z,6.75
